Time;durP1;ratioP1;P1;durP2;ratioP2;P2;SDS_P1;SDS_P2;PMS_P1;PMS_P2;Temp;Humidity;BMP_temperature;BMP_pressure;BME280_temperature;BME280_humidity;BME280_pressure;Samples;Min_cycle;Max_cycle;Signal;HPM_P1;HPM_P2
2022/12/30 00:01:39;;;;;;;2.42;0.52;;;;;;;5.22;100.00;95665.75;5109206;28;25011;-76
2022/12/30 00:04:06;;;;;;;0.60;0.45;;;;;;;5.12;100.00;95672.19;5122886;28;24441;-76
2022/12/30 00:06:34;;;;;;;0.50;0.30;;;;;;;5.17;100.00;95674.56;5115971;28;24967;-76
2022/12/30 00:09:00;;;;;;;0.40;0.28;;;;;;;5.18;100.00;95669.34;5124066;27;24438;-76
2022/12/30 00:11:29;;;;;;;0.93;0.40;;;;;;;5.08;100.00;95673.22;5113589;27;24429;-76
2022/12/30 00:33:43;;;;;;;0.80;0.53;;;;;;;5.15;100.00;95686.63;5124428;27;24450;-76
2022/12/30 00:36:10;;;;;;;0.95;0.40;;;;;;;5.10;100.00;95687.66;5107502;28;24432;-77
2022/12/30 00:38:38;;;;;;;0.90;0.43;;;;;;;5.19;100.00;95685.59;5126938;27;24432;-76
2022/12/30 00:43:48;;;;;;;0.90;0.52;;;;;;;5.29;100.00;95690.25;5117714;27;24461;-76
2022/12/30 00:46:16;;;;;;;0.60;0.40;;;;;;;5.34;100.00;95690.09;5126889;27;24451;-76
2022/12/30 00:56:55;;;;;;;0.50;0.40;;;;;;;5.18;100.00;95696.75;5111925;27;24528;-76
2022/12/30 00:59:22;;;;;;;0.93;0.50;;;;;;;5.14;100.00;95700.38;5111792;27;24442;-76
2022/12/30 01:01:48;;;;;;;2.70;0.40;;;;;;;5.06;100.00;95706.66;5119861;27;24456;-76
2022/12/30 01:04:15;;;;;;;0.80;0.47;;;;;;;4.94;100.00;95709.75;5120727;27;24453;-76
2022/12/30 01:06:41;;;;;;;1.25;0.45;;;;;;;4.95;100.00;95700.31;5122447;27;24434;-77
2022/12/30 01:09:08;;;;;;;1.45;0.55;;;;;;;4.99;100.00;95707.81;5121846;27;24467;-76
2022/12/30 01:11:36;;;;;;;0.65;0.40;;;;;;;4.92;100.00;95710.69;5127139;27;24436;-76
2022/12/30 01:14:02;;;;;;;1.02;0.57;;;;;;;4.79;100.00;95718.06;5117472;27;25022;-76
2022/12/30 01:16:29;;;;;;;1.38;0.50;;;;;;;4.77;100.00;95714.72;5098868;28;24430;-76
2022/12/30 01:18:55;;;;;;;0.93;0.43;;;;;;;4.71;100.00;95725.22;5106738;27;24440;-76
2022/12/30 01:21:22;;;;;;;3.67;0.50;;;;;;;4.67;100.00;95727.06;5123704;27;25183;-76
2022/12/30 01:23:49;;;;;;;1.10;0.43;;;;;;;4.70;100.00;95724.41;5118955;27;24444;-76
2022/12/30 01:26:15;;;;;;;0.93;0.50;;;;;;;4.64;100.00;95727.22;5120532;27;24444;-76
2022/12/30 01:28:43;;;;;;;1.45;0.55;;;;;;;4.65;100.00;95733.19;5117833;27;24436;-76
2022/12/30 01:31:12;;;;;;;1.23;0.60;;;;;;;4.70;100.00;95728.69;5111220;27;24429;-75
2022/12/30 01:33:38;;;;;;;2.58;1.00;;;;;;;4.58;100.00;95736.00;5110113;27;24456;-76
2022/12/30 01:36:06;;;;;;;2.42;0.90;;;;;;;4.53;100.00;95734.50;5118774;27;24460;-76
2022/12/30 01:38:33;;;;;;;5.85;1.10;;;;;;;4.41;100.00;95735.81;5120687;27;24438;-76
2022/12/30 01:41:00;;;;;;;2.43;0.93;;;;;;;4.38;100.00;95741.06;5121640;27;24893;-76
2022/12/30 01:43:45;;;;;;;1.40;0.70;;;;;;;4.37;100.00;95747.06;5123561;27;24429;-76
2022/12/30 01:46:17;;;;;;;1.80;0.90;;;;;;;4.45;100.00;95747.66;5113914;27;24799;-75
2022/12/30 01:48:44;;;;;;;1.88;0.82;;;;;;;4.52;100.00;95749.03;5118219;27;24495;-75
2022/12/30 01:51:16;;;;;;;2.10;0.90;;;;;;;4.55;100.00;95754.06;5117854;27;24433;-75
2022/12/30 01:53:45;;;;;;;1.65;0.80;;;;;;;4.56;100.00;95753.19;5115236;27;24441;-76
2022/12/30 01:56:16;;;;;;;2.67;1.15;;;;;;;4.46;100.00;95757.00;5105922;27;24809;-75
2022/12/30 01:58:48;;;;;;;1.65;1.10;;;;;;;4.50;100.00;95766.25;5117740;27;25001;-75
2022/12/30 02:01:15;;;;;;;2.10;1.10;;;;;;;4.57;100.00;95764.28;5115374;27;24554;-75
2022/12/30 02:03:45;;;;;;;4.60;1.07;;;;;;;4.73;100.00;95764.50;5118603;27;24537;-75
2022/12/30 02:06:12;;;;;;;27.00;1.73;;;;;;;4.78;100.00;95760.00;5120951;27;24430;-75
2022/12/30 02:08:39;;;;;;;13.70;1.30;;;;;;;4.93;100.00;95759.41;5120522;27;24465;-76
2022/12/30 02:11:06;;;;;;;18.20;1.13;;;;;;;4.75;100.00;95743.03;5124731;27;24440;-75
2022/12/30 02:13:33;;;;;;;11.40;1.00;;;;;;;5.08;100.00;95738.25;5117448;27;24436;-75
2022/12/30 02:16:17;;;;;;;8.27;1.38;;;;;;;5.30;100.00;95750.16;5128322;27;24440;-75
2022/12/30 02:19:00;;;;;;;2.10;1.33;;;;;;;5.17;100.00;95749.84;5112668;27;24640;-76
2022/12/30 02:21:43;;;;;;;2.23;1.40;;;;;;;4.68;100.00;95753.59;5124346;27;24446;-75
2022/12/30 02:24:47;;;;;;;1.88;1.15;;;;;;;4.49;100.00;95749.19;5107488;27;24454;-75
2022/12/30 02:27:47;;;;;;;1.80;1.45;;;;;;;4.33;100.00;95750.66;5109837;27;24789;-75
2022/12/30 02:30:21;;;;;;;1.58;0.68;;;;;;;4.25;100.00;95750.97;5113706;27;24436;-76
2022/12/30 02:33:08;;;;;;;0.95;0.70;;;;;;;4.32;100.00;95757.53;5103218;27;24434;-76
2022/12/30 02:35:45;;;;;;;1.67;1.00;;;;;;;4.18;100.00;95752.09;5112790;27;24438;-75
2022/12/30 02:38:23;;;;;;;1.77;0.82;;;;;;;4.08;100.00;95753.34;5110708;27;24433;-75
2022/12/30 02:46:37;;;;;;;1.30;0.80;;;;;;;3.98;100.00;95744.31;5115441;27;24974;-75
2022/12/30 02:49:07;;;;;;;3.00;1.20;;;;;;;4.04;100.00;95741.50;5116536;27;25013;-75
2022/12/30 02:54:21;;;;;;;3.20;1.20;;;;;;;3.99;100.00;95751.09;5111979;27;24627;-75
2022/12/30 02:56:49;;;;;;;1.73;1.08;;;;;;;3.90;100.00;95754.03;5115850;27;24437;-75
2022/12/30 03:05:07;;;;;;;3.20;1.40;;;;;;;3.84;100.00;95760.19;5111571;28;24452;-75
2022/12/30 03:07:44;;;;;;;2.90;1.50;;;;;;;3.88;100.00;95756.63;5117077;28;24441;-76
2022/12/30 03:13:08;;;;;;;2.13;1.40;;;;;;;3.63;100.00;95780.59;5112246;28;24443;-76
2022/12/30 03:15:42;;;;;;;4.00;2.08;;;;;;;3.59;100.00;95783.28;5109761;28;24438;-76
2022/12/30 03:18:10;;;;;;;3.28;1.48;;;;;;;3.62;100.00;95791.69;5102875;28;24436;-76
2022/12/30 03:20:40;;;;;;;5.17;1.50;;;;;;;3.66;100.00;95802.66;5094785;28;24446;-75
2022/12/30 03:28:49;;;;;;;2.53;0.68;;;;;;;3.55;100.00;95805.59;5118241;28;24401;-75
2022/12/30 03:31:16;;;;;;;6.78;0.40;;;;;;;3.56;100.00;95801.31;5112932;28;24441;-75
2022/12/30 03:33:43;;;;;;;4.65;0.55;;;;;;;3.54;100.00;95803.94;5121476;28;25046;-76
2022/12/30 03:36:17;;;;;;;1.00;0.70;;;;;;;3.35;100.00;95803.72;5122014;28;24441;-76
2022/12/30 03:38:47;;;;;;;5.07;0.85;;;;;;;3.36;100.00;95795.16;5112837;27;24448;-76
2022/12/30 03:41:14;;;;;;;0.90;0.70;;;;;;;3.31;100.00;95794.50;5117968;27;24468;-76
2022/12/30 03:43:43;;;;;;;2.45;0.82;;;;;;;3.26;100.00;95787.84;5120393;27;24441;-76
2022/12/30 03:46:09;;;;;;;12.23;1.20;;;;;;;3.30;100.00;95785.16;5107332;27;24812;-76
2022/12/30 03:48:36;;;;;;;6.20;0.80;;;;;;;3.22;100.00;95778.59;5120412;27;24978;-76
2022/12/30 03:51:02;;;;;;;5.18;1.15;;;;;;;3.23;100.00;95770.88;5117951;27;24436;-76
2022/12/30 03:53:30;;;;;;;3.88;1.50;;;;;;;3.29;100.00;95765.53;5120312;27;24482;-75
2022/12/30 03:55:57;;;;;;;5.05;1.00;;;;;;;3.32;100.00;95762.88;5109470;27;25009;-76
2022/12/30 03:58:23;;;;;;;13.63;1.65;;;;;;;3.34;100.00;95768.78;5120838;27;24433;-76
2022/12/30 04:00:50;;;;;;;3.30;1.48;;;;;;;3.37;100.00;95766.13;5120501;27;24438;-75
2022/12/30 04:03:17;;;;;;;3.17;1.35;;;;;;;3.38;100.00;95759.28;5121751;27;24425;-75
2022/12/30 04:05:43;;;;;;;1.35;1.25;;;;;;;3.46;100.00;95762.41;5121598;27;24429;-75
2022/12/30 04:08:10;;;;;;;1.63;1.38;;;;;;;3.43;100.00;95762.50;5118562;27;24450;-75
2022/12/30 04:10:38;;;;;;;1.48;1.38;;;;;;;3.35;100.00;95762.78;5111542;27;24994;-75
2022/12/30 04:13:04;;;;;;;4.63;1.10;;;;;;;3.14;100.00;95768.63;5125485;27;24436;-75
2022/12/30 04:15:31;;;;;;;2.95;1.30;;;;;;;2.94;100.00;95766.72;5125156;27;24441;-75
2022/12/30 04:17:57;;;;;;;1.70;1.38;;;;;;;2.87;100.00;95755.03;5100414;28;24426;-75
2022/12/30 04:20:23;;;;;;;1.50;1.30;;;;;;;2.71;100.00;95749.59;5124309;27;24425;-75
2022/12/30 04:22:50;;;;;;;3.15;1.25;;;;;;;2.62;100.00;95745.59;5121725;27;25050;-75
2022/12/30 04:25:17;;;;;;;12.80;1.70;;;;;;;2.55;100.00;95754.31;5120035;27;24991;-75
2022/12/30 04:27:44;;;;;;;16.75;1.60;;;;;;;2.65;100.00;95739.53;5111565;27;24807;-75
2022/12/30 04:30:12;;;;;;;8.00;1.45;;;;;;;2.74;100.00;95736.66;5124075;27;24433;-75
2022/12/30 04:32:39;;;;;;;9.55;1.40;;;;;;;2.83;100.00;95738.13;5122617;27;24432;-75
2022/12/30 04:35:06;;;;;;;3.40;1.20;;;;;;;2.87;100.00;95748.19;5114867;27;24451;-75
2022/12/30 04:37:32;;;;;;;11.75;1.20;;;;;;;2.87;100.00;95749.91;5121830;27;24433;-76
2022/12/30 04:39:59;;;;;;;11.93;1.00;;;;;;;2.81;100.00;95739.88;5122070;27;25009;-76
2022/12/30 04:42:25;;;;;;;35.63;1.55;;;;;;;2.57;100.00;95738.97;5124677;27;24807;-76
2022/12/30 04:44:53;;;;;;;32.17;1.17;;;;;;;2.43;100.00;95736.84;5116083;27;24464;-76
2022/12/30 04:47:19;;;;;;;1.25;0.50;;;;;;;2.47;100.00;95740.97;5109579;27;24441;-76
2022/12/30 04:49:46;;;;;;;13.52;0.77;;;;;;;2.57;100.00;95739.78;5103940;28;24437;-76
2022/12/30 04:52:12;;;;;;;1.95;0.60;;;;;;;2.67;100.00;95748.84;5120975;27;24437;-76
2022/12/30 04:54:39;;;;;;;10.30;0.88;;;;;;;2.78;100.00;95748.50;5116212;27;24441;-76
2022/12/30 04:57:05;;;;;;;11.10;0.60;;;;;;;2.73;100.00;95747.78;5113442;27;24441;-75
2022/12/30 04:59:32;;;;;;;14.20;0.90;;;;;;;2.46;100.00;95762.31;5117259;27;24513;-75
2022/12/30 05:02:00;;;;;;;1.80;0.80;;;;;;;2.35;100.00;95756.69;5102320;28;24486;-75
2022/12/30 05:04:26;;;;;;;0.70;0.70;;;;;;;2.43;100.00;95745.34;5107058;28;25013;-75
2022/12/30 05:06:53;;;;;;;2.53;0.80;;;;;;;2.52;100.00;95748.47;5123454;27;24776;-76
2022/12/30 05:09:19;;;;;;;1.52;0.80;;;;;;;2.57;100.00;95744.91;5117149;27;25316;-76
2022/12/30 05:11:46;;;;;;;6.45;1.00;;;;;;;2.54;100.00;95737.31;5109803;27;24430;-77
2022/12/30 05:14:12;;;;;;;6.25;1.10;;;;;;;2.55;100.00;95744.09;5124658;27;24438;-77
2022/12/30 05:16:39;;;;;;;10.38;1.20;;;;;;;2.49;100.00;95756.25;5112122;27;24444;-77
2022/12/30 05:19:06;;;;;;;2.20;0.80;;;;;;;2.56;100.00;95750.03;5116193;27;24814;-75
2022/12/30 05:21:33;;;;;;;4.18;1.15;;;;;;;2.65;100.00;95754.88;5121349;27;24452;-75
2022/12/30 05:26:43;;;;;;;31.17;1.35;;;;;;;2.55;100.00;95750.94;5116425;27;25029;-75
2022/12/30 05:29:10;;;;;;;38.58;1.90;;;;;;;2.37;100.00;95750.66;5115884;27;25017;-75
2022/12/30 05:31:36;;;;;;;37.00;1.70;;;;;;;2.24;100.00;95748.50;5118525;27;24515;-75
2022/12/30 05:34:03;;;;;;;15.90;1.00;;;;;;;2.31;100.00;95755.94;5121810;27;24962;-74
2022/12/30 05:36:31;;;;;;;3.90;0.60;;;;;;;2.45;100.00;95755.53;5109547;27;24441;-75
2022/12/30 05:38:57;;;;;;;6.60;0.80;;;;;;;2.52;100.00;95769.78;5101531;28;24434;-75
2022/12/30 05:41:23;;;;;;;22.30;1.00;;;;;;;2.53;100.00;95761.22;5097159;28;24438;-75
2022/12/30 05:43:50;;;;;;;4.63;0.82;;;;;;;2.56;100.00;95766.25;5103262;27;24438;-75
2022/12/30 05:46:17;;;;;;;8.63;0.80;;;;;;;2.60;100.00;95767.00;5124479;27;24525;-74
2022/12/30 05:48:43;;;;;;;12.53;0.77;;;;;;;2.59;100.00;95772.97;5108804;27;24433;-75
2022/12/30 05:51:10;;;;;;;10.67;0.77;;;;;;;2.52;100.00;95774.03;5124220;27;24437;-74
2022/12/30 05:53:37;;;;;;;6.65;0.80;;;;;;;2.51;100.00;95782.59;5120315;27;24466;-75
2022/12/30 05:56:04;;;;;;;7.60;1.20;;;;;;;2.42;100.00;95781.19;5120328;27;24437;-75
2022/12/30 05:58:31;;;;;;;6.03;1.23;;;;;;;2.52;100.00;95780.03;5120357;27;24437;-75
2022/12/30 06:00:58;;;;;;;7.05;1.10;;;;;;;2.59;100.00;95783.19;5122406;27;24432;-75
2022/12/30 06:03:25;;;;;;;11.52;1.65;;;;;;;2.48;100.00;95783.53;5105080;27;24464;-75
2022/12/30 06:05:56;;;;;;;21.45;4.40;;;;;;;2.51;100.00;95772.38;5117487;27;24434;-75
2022/12/30 06:08:22;;;;;;;10.95;1.77;;;;;;;2.43;100.00;95767.50;5108159;27;24985;-75
2022/12/30 06:10:50;;;;;;;2.67;1.30;;;;;;;2.53;100.00;95768.91;5121026;27;24436;-75
2022/12/30 06:13:16;;;;;;;10.38;1.42;;;;;;;2.57;100.00;95761.97;5122128;27;24432;-75
2022/12/30 06:15:43;;;;;;;3.53;0.95;;;;;;;2.63;100.00;95769.44;5115001;27;24432;-76
2022/12/30 06:18:09;;;;;;;1.20;1.10;;;;;;;2.64;100.00;95773.69;5122430;27;24993;-75
2022/12/30 06:20:36;;;;;;;1.38;1.17;;;;;;;2.69;100.00;95770.97;5121657;27;24958;-75
2022/12/30 06:23:04;;;;;;;1.47;1.20;;;;;;;2.73;100.00;95785.31;5106182;27;24453;-76
2022/12/30 06:25:30;;;;;;;2.63;1.52;;;;;;;2.50;100.00;95784.31;5097760;27;25036;-75
2022/12/30 06:27:58;;;;;;;2.20;1.88;;;;;;;2.33;100.00;95782.28;5105332;27;24707;-76
2022/12/30 06:30:25;;;;;;;1.50;1.40;;;;;;;2.24;100.00;95777.44;5118833;27;24448;-75
2022/12/30 06:32:54;;;;;;;1.30;1.13;;;;;;;2.22;100.00;95773.25;5110605;27;24433;-76
2022/12/30 06:35:20;;;;;;;2.10;1.20;;;;;;;2.18;100.00;95783.56;5119081;27;24437;-75
2022/12/30 06:37:47;;;;;;;1.50;1.00;;;;;;;2.10;100.00;95772.75;5122567;27;24436;-75
2022/12/30 06:40:13;;;;;;;1.40;1.10;;;;;;;2.11;100.00;95774.44;5121907;27;24428;-77
2022/12/30 06:42:40;;;;;;;3.30;1.23;;;;;;;2.08;100.00;95774.53;5102285;27;24464;-77
2022/12/30 06:45:09;;;;;;;1.30;1.20;;;;;;;2.00;100.00;95771.34;5112079;27;24438;-76
2022/12/30 06:47:35;;;;;;;11.32;1.02;;;;;;;2.11;100.00;95774.44;5106217;28;24433;-76
2022/12/30 06:50:02;;;;;;;8.82;1.30;;;;;;;2.07;100.00;95774.56;5115659;27;24436;-76
2022/12/30 06:52:28;;;;;;;6.78;1.48;;;;;;;2.16;100.00;95775.13;5111802;27;24990;-75
2022/12/30 06:54:55;;;;;;;1.58;1.02;;;;;;;2.25;100.00;95780.84;5122344;27;24437;-75
2022/12/30 06:57:21;;;;;;;2.78;1.30;;;;;;;2.30;100.00;95790.06;5100857;27;24437;-75
2022/12/30 06:59:47;;;;;;;9.88;1.27;;;;;;;2.25;100.00;95785.94;5115463;27;24444;-76
2022/12/30 07:02:15;;;;;;;9.32;0.90;;;;;;;2.30;100.00;95777.28;5117683;27;24452;-75
2022/12/30 07:04:42;;;;;;;3.00;1.10;;;;;;;2.25;100.00;95776.56;5124959;27;24621;-75
2022/12/30 07:07:08;;;;;;;2.00;1.10;;;;;;;2.26;100.00;95772.28;5106111;28;24434;-77
2022/12/30 07:09:35;;;;;;;0.80;0.80;;;;;;;2.32;100.00;95774.66;5122067;28;24428;-77
2022/12/30 07:12:01;;;;;;;2.25;1.45;;;;;;;2.41;100.00;95774.38;5098866;28;24426;-77
2022/12/30 07:14:28;;;;;;;3.25;1.10;;;;;;;2.35;100.00;95782.25;5079603;28;67020;-76
2022/12/30 07:16:54;;;;;;;3.78;0.90;;;;;;;2.21;100.00;95779.25;5074970;28;24442;-76
2022/12/30 07:19:22;;;;;;;1.30;1.20;;;;;;;2.14;100.00;95771.78;5085933;28;24438;-76
2022/12/30 07:21:49;;;;;;;1.50;1.40;;;;;;;2.11;100.00;95776.13;5082282;28;24616;-76
2022/12/30 07:24:15;;;;;;;7.00;1.65;;;;;;;2.01;100.00;95767.91;5085199;28;24446;-76
2022/12/30 07:26:42;;;;;;;1.92;1.83;;;;;;;2.01;100.00;95773.03;5079006;28;24433;-76
2022/12/30 07:29:08;;;;;;;2.13;1.40;;;;;;;2.04;100.00;95766.97;5079934;28;24430;-76
2022/12/30 07:31:35;;;;;;;1.30;1.20;;;;;;;2.02;100.00;95774.69;5082661;28;24441;-76
2022/12/30 07:34:01;;;;;;;1.40;1.30;;;;;;;2.09;100.00;95765.97;5077284;28;24431;-76
2022/12/30 07:36:29;;;;;;;1.47;1.20;;;;;;;2.15;100.00;95760.69;5083148;28;24509;-77
2022/12/30 07:38:57;;;;;;;7.00;1.30;;;;;;;2.10;100.00;95754.88;5081555;28;24445;-76
2022/12/30 07:41:23;;;;;;;2.80;1.30;;;;;;;2.14;100.00;95748.78;5084509;28;24434;-77
2022/12/30 07:43:50;;;;;;;1.40;1.17;;;;;;;2.34;100.00;95745.63;5077687;28;24474;-74
2022/12/30 07:46:16;;;;;;;1.42;1.20;;;;;;;2.51;100.00;95745.09;5080721;28;24435;-75
2022/12/30 07:48:43;;;;;;;1.97;1.23;;;;;;;2.60;100.00;95747.38;5077920;28;24427;-75
2022/12/30 07:51:11;;;;;;;1.92;1.27;;;;;;;2.69;100.00;95756.47;5065859;28;24442;-75
2022/12/30 07:53:39;;;;;;;1.08;0.98;;;;;;;2.70;100.00;95759.84;5077162;28;24438;-76
2022/12/30 07:56:08;;;;;;;0.90;0.77;;;;;;;2.80;100.00;95756.94;5079914;28;24426;-76
2022/12/30 07:58:35;;;;;;;1.13;0.90;;;;;;;2.90;100.00;95755.75;5073392;28;24805;-76
2022/12/30 08:01:04;;;;;;;1.08;0.80;;;;;;;2.95;100.00;95758.16;5085762;28;24465;-76
2022/12/30 08:03:30;;;;;;;2.00;1.10;;;;;;;2.87;100.00;95752.47;5067476;28;24482;-75
2022/12/30 08:05:57;;;;;;;1.10;0.80;;;;;;;2.94;100.00;95746.28;5074813;28;24442;-75
2022/12/30 08:08:23;;;;;;;2.13;1.00;;;;;;;3.00;100.00;95755.44;5078302;28;25024;-75
2022/12/30 08:10:58;;;;;;;1.25;0.90;;;;;;;3.07;100.00;95751.78;5080074;28;24793;-76
2022/12/30 08:13:25;;;;;;;0.73;0.60;;;;;;;3.27;100.00;95749.41;5075122;28;25018;-76
2022/12/30 08:15:51;;;;;;;1.50;0.90;;;;;;;3.35;100.00;95731.22;5087147;28;24435;-77
2022/12/30 08:18:18;;;;;;;1.50;0.80;;;;;;;3.42;100.00;95729.28;5074742;28;24434;-75
2022/12/30 08:23:13;;;;;;;1.33;0.80;;;;;;;3.44;100.00;95738.56;4986837;28;25035;-72
2022/12/30 08:25:39;;;;;;;1.75;0.80;;;;;;;3.49;100.00;95736.69;4987429;28;25028;-74
2022/12/30 08:28:07;;;;;;;1.00;0.80;;;;;;;3.52;100.00;95728.91;4990366;28;24443;-75
2022/12/30 08:30:34;;;;;;;1.13;0.77;;;;;;;3.54;100.00;95733.97;4983812;28;24437;-75
2022/12/30 08:33:00;;;;;;;1.67;0.82;;;;;;;3.59;100.00;95734.63;5001033;28;24440;-74
2022/12/30 08:35:27;;;;;;;2.70;1.00;;;;;;;3.64;100.00;95730.19;5000561;28;24469;-74
2022/12/30 08:37:53;;;;;;;1.40;0.90;;;;;;;3.73;100.00;95724.72;5001388;28;24806;-74
2022/12/30 08:40:20;;;;;;;1.33;1.02;;;;;;;3.73;100.00;95721.31;4998721;28;24436;-74
2022/12/30 08:42:46;;;;;;;1.38;0.90;;;;;;;3.87;100.00;95719.94;5001685;28;24460;-74
2022/12/30 08:45:14;;;;;;;1.73;1.20;;;;;;;3.83;100.00;95720.09;4998675;28;24428;-74
2022/12/30 08:47:41;;;;;;;1.88;1.40;;;;;;;3.96;100.00;95713.63;5002811;28;24436;-74
2022/12/30 08:50:08;;;;;;;1.83;1.05;;;;;;;3.95;100.00;95711.94;4998030;28;24779;-74
2022/12/30 08:52:36;;;;;;;1.13;1.03;;;;;;;4.10;100.00;95706.25;5006540;28;24527;-75
2022/12/30 08:55:02;;;;;;;3.45;2.17;;;;;;;4.05;100.00;95715.00;4997214;28;24432;-75
2022/12/30 08:57:28;;;;;;;3.25;2.95;;;;;;;4.05;100.00;95713.28;5003653;28;24790;-74
2022/12/30 08:59:55;;;;;;;2.50;2.30;;;;;;;4.13;100.00;95700.16;4996310;28;24444;-74
2022/12/30 09:02:23;;;;;;;4.00;2.60;;;;;;;4.12;100.00;95703.63;5003758;28;24433;-74
2022/12/30 09:04:49;;;;;;;5.45;4.45;;;;;;;4.05;100.00;95700.47;4996451;28;24436;-75
2022/12/30 09:07:16;;;;;;;2.10;1.60;;;;;;;4.03;100.00;95712.50;5006402;28;24432;-74
2022/12/30 09:09:42;;;;;;;1.70;1.10;;;;;;;4.16;100.00;95702.63;4996281;28;24425;-74
2022/12/30 09:12:08;;;;;;;2.50;1.40;;;;;;;4.12;100.00;95719.84;5003391;28;24440;-75
2022/12/30 09:14:35;;;;;;;2.00;1.70;;;;;;;4.08;100.00;95713.16;4996229;28;25000;-75
2022/12/30 09:17:01;;;;;;;1.67;1.20;;;;;;;4.16;100.00;95712.88;5011580;28;24985;-75
2022/12/30 09:19:29;;;;;;;3.20;1.50;;;;;;;4.02;100.00;95707.44;5003778;28;24823;-74
2022/12/30 09:21:56;;;;;;;1.83;1.30;;;;;;;4.00;100.00;95707.47;4999118;28;24428;-74
2022/12/30 09:24:22;;;;;;;2.83;1.50;;;;;;;4.08;100.00;95702.09;4997579;28;24460;-74
2022/12/30 09:26:48;;;;;;;2.17;1.40;;;;;;;4.08;100.00;95690.09;5002251;28;24440;-74
2022/12/30 09:29:16;;;;;;;2.23;1.43;;;;;;;4.18;100.00;95687.16;4999231;28;24448;-74
2022/12/30 09:31:42;;;;;;;1.55;1.08;;;;;;;4.27;100.00;95687.66;5001258;28;24524;-75
2022/12/30 09:34:09;;;;;;;1.20;0.90;;;;;;;4.34;100.00;95695.94;5000160;28;24434;-75
2022/12/30 09:36:36;;;;;;;1.90;1.33;;;;;;;4.33;100.00;95684.81;5000071;28;25000;-75
2022/12/30 09:39:03;;;;;;;2.17;1.20;;;;;;;4.46;100.00;95692.06;5000355;28;24847;-75
2022/12/30 09:44:46;;;;;;;2.25;1.20;;;;;;;4.58;100.00;95687.25;4952700;28;24444;-75
2022/12/30 09:47:20;;;;;;;2.85;1.20;;;;;;;4.70;100.00;95672.25;5002937;28;24436;-75
2022/12/30 09:49:52;;;;;;;1.83;1.10;;;;;;;4.78;100.00;95670.19;4997430;28;24895;-75
2022/12/30 09:52:26;;;;;;;2.28;1.23;;;;;;;4.87;100.00;95666.44;5002971;28;24537;-74
2022/12/30 09:54:55;;;;;;;1.90;1.17;;;;;;;5.06;100.00;95660.44;4997046;28;24447;-74
2022/12/30 09:57:32;;;;;;;1.70;1.10;;;;;;;5.23;100.00;95661.47;5006031;28;24978;-75
2022/12/30 10:00:04;;;;;;;1.85;1.10;;;;;;;5.24;100.00;95663.97;4997214;28;24421;-75
2022/12/30 10:02:43;;;;;;;2.13;1.38;;;;;;;5.29;100.00;95654.31;5002689;28;24435;-75
2022/12/30 10:05:13;;;;;;;11.30;1.60;;;;;;;5.26;100.00;95651.03;4998724;28;24443;-75
2022/12/30 10:07:50;;;;;;;1.70;1.30;;;;;;;5.23;100.00;95638.38;5001576;28;24444;-75
2022/12/30 10:10:20;;;;;;;2.10;1.20;;;;;;;5.48;100.00;95638.91;4999246;28;24435;-75
2022/12/30 10:12:58;;;;;;;2.60;1.70;;;;;;;5.21;100.00;95642.72;5000437;28;24523;-75
2022/12/30 10:15:43;;;;;;;9.85;5.28;;;;;;;5.34;100.00;95633.59;5004043;28;24754;-74
2022/12/30 10:18:28;;;;;;;7.35;3.13;;;;;;;5.63;100.00;95624.53;4996620;28;24480;-74
2022/12/30 10:21:07;;;;;;;14.68;7.72;;;;;;;5.55;100.00;95624.06;5003157;28;24448;-74
2022/12/30 10:23:46;;;;;;;8.15;5.35;;;;;;;5.38;100.00;95618.84;5001259;28;24538;-74
2022/12/30 10:26:16;;;;;;;4.65;2.80;;;;;;;5.37;100.00;95614.63;5004306;28;24456;-74
2022/12/30 10:28:47;;;;;;;2.55;1.40;;;;;;;5.39;100.00;95605.13;4993274;28;24443;-74
2022/12/30 10:31:19;;;;;;;2.25;1.42;;;;;;;5.38;100.00;95611.13;4995776;28;24443;-74
2022/12/30 10:33:48;;;;;;;2.17;1.40;;;;;;;5.36;100.00;95603.53;5010492;28;24428;-74
2022/12/30 10:36:19;;;;;;;1.48;1.35;;;;;;;5.43;100.00;95602.34;5010157;28;24446;-74
2022/12/30 10:38:47;;;;;;;2.40;1.70;;;;;;;5.42;100.00;95602.44;5010303;28;24439;-74
2022/12/30 10:41:26;;;;;;;4.35;1.60;;;;;;;5.44;100.00;95606.56;5010003;28;24447;-74
2022/12/30 10:44:02;;;;;;;2.67;1.80;;;;;;;5.48;100.00;95591.84;5010064;28;24460;-74
2022/12/30 10:46:49;;;;;;;2.33;1.70;;;;;;;5.55;100.00;95588.94;5010133;28;24444;-74
2022/12/30 10:49:33;;;;;;;2.53;1.88;;;;;;;5.56;100.00;95592.34;5006506;28;24512;-74
2022/12/30 10:52:01;;;;;;;2.85;1.35;;;;;;;5.58;100.00;95596.50;5001565;28;25001;-75
2022/12/30 10:54:29;;;;;;;2.45;1.38;;;;;;;5.63;100.00;95587.75;4997748;28;24829;-74
2022/12/30 10:56:56;;;;;;;2.00;1.38;;;;;;;5.65;100.00;95601.38;4998436;28;24433;-74
2022/12/30 10:59:26;;;;;;;1.33;1.02;;;;;;;5.56;100.00;95594.91;4999957;28;25012;-74
2022/12/30 11:01:59;;;;;;;2.30;1.20;;;;;;;5.52;100.00;95594.22;5004204;28;24441;-74
2022/12/30 11:04:34;;;;;;;2.42;1.38;;;;;;;5.58;100.00;95582.84;5001399;28;25008;-74
2022/12/30 11:07:02;;;;;;;2.60;1.43;;;;;;;5.62;100.00;95584.34;4998416;28;24441;-74
2022/12/30 11:09:30;;;;;;;1.35;1.20;;;;;;;5.62;100.00;95575.81;5000229;28;24502;-75
2022/12/30 11:14:44;;;;;;;2.20;1.30;;;;;;;5.70;100.00;95566.00;4999661;28;24424;-74
2022/12/30 11:17:21;;;;;;;2.17;1.20;;;;;;;5.68;100.00;95557.56;5003960;28;24441;-74
2022/12/30 11:19:51;;;;;;;1.33;1.10;;;;;;;5.76;100.00;95551.13;5001719;28;24444;-74
2022/12/30 11:22:17;;;;;;;1.42;1.00;;;;;;;5.67;100.00;95546.41;5004588;28;24437;-72
2022/12/30 11:24:56;;;;;;;2.45;1.15;;;;;;;5.58;100.00;95541.72;4998172;28;24460;-72
2022/12/30 11:27:32;;;;;;;1.65;1.20;;;;;;;5.58;100.00;95537.41;5005474;28;24825;-72
2022/12/30 11:29:59;;;;;;;1.88;1.20;;;;;;;5.58;100.00;95532.28;5004422;28;24424;-72
2022/12/30 11:32:25;;;;;;;2.13;1.10;;;;;;;5.57;100.00;95528.06;4999647;28;24441;-72
2022/12/30 11:34:52;;;;;;;2.63;1.20;;;;;;;5.56;100.00;95517.84;5000606;28;24833;-72
2022/12/30 11:37:24;;;;;;;1.23;0.98;;;;;;;5.64;100.00;95530.34;5006420;28;24439;-72
2022/12/30 11:39:52;;;;;;;2.70;1.10;;;;;;;5.62;100.00;95534.72;5003250;28;24464;-72
2022/12/30 11:42:29;;;;;;;2.42;1.13;;;;;;;5.63;100.00;95526.09;5000236;28;24469;-72
2022/12/30 11:45:16;;;;;;;1.73;1.05;;;;;;;5.63;100.00;95534.63;4998182;28;24448;-73
2022/12/30 11:47:44;;;;;;;1.67;1.00;;;;;;;5.59;100.00;95515.13;5002711;28;24443;-74
2022/12/30 11:50:16;;;;;;;2.70;1.20;;;;;;;5.63;100.00;95514.06;5000237;28;24437;-74
2022/12/30 11:52:50;;;;;;;2.20;0.90;;;;;;;5.63;100.00;95506.38;4999336;28;24441;-74
2022/12/30 11:55:24;;;;;;;1.88;1.10;;;;;;;5.71;100.00;95506.84;5004171;28;24436;-74
2022/12/30 11:57:52;;;;;;;2.08;1.02;;;;;;;5.68;100.00;95507.00;4998784;28;24445;-74
2022/12/30 12:00:33;;;;;;;4.85;1.30;;;;;;;5.68;100.00;95501.84;4998541;28;24904;-74
2022/12/30 12:03:04;;;;;;;4.03;1.92;;;;;;;5.72;100.00;95502.53;5006694;28;24451;-74
2022/12/30 12:05:39;;;;;;;2.40;1.23;;;;;;;5.71;100.00;95499.16;5007245;28;24465;-74
2022/12/30 12:08:14;;;;;;;3.28;1.60;;;;;;;5.74;100.00;95493.00;5005639;28;24437;-74
2022/12/30 12:10:48;;;;;;;2.53;1.85;;;;;;;5.82;100.00;95480.63;5003721;28;24484;-74
2022/12/30 12:13:26;;;;;;;3.05;1.80;;;;;;;5.89;100.00;95471.69;5010606;28;25004;-74
2022/12/30 12:15:57;;;;;;;2.20;1.40;;;;;;;6.03;100.00;95466.75;5010273;28;24448;-74
2022/12/30 12:18:28;;;;;;;2.42;0.95;;;;;;;5.94;100.00;95458.69;5011305;28;24502;-74
2022/12/30 12:21:05;;;;;;;1.00;0.90;;;;;;;5.93;100.00;95460.41;5010543;28;24456;-74
2022/12/30 12:23:44;;;;;;;1.83;0.98;;;;;;;5.85;100.00;95451.38;5009525;28;25059;-74
2022/12/30 12:26:17;;;;;;;1.73;1.10;;;;;;;5.87;100.00;95454.72;5007910;28;24436;-74
2022/12/30 12:28:45;;;;;;;2.40;1.10;;;;;;;5.90;100.00;95464.84;5009707;28;24996;-74
2022/12/30 12:31:34;;;;;;;3.05;1.23;;;;;;;5.88;100.00;95467.47;5005489;28;24432;-74
2022/12/30 12:34:10;;;;;;;1.60;0.90;;;;;;;5.92;100.00;95474.16;5010492;28;24794;-74
2022/12/30 12:36:50;;;;;;;3.10;0.68;;;;;;;5.93;100.00;95465.56;5010261;28;24443;-74
2022/12/30 12:39:24;;;;;;;1.40;0.82;;;;;;;5.87;100.00;95468.38;5006075;28;24432;-74
2022/12/30 12:42:00;;;;;;;1.77;1.05;;;;;;;5.98;100.00;95453.31;5005290;28;25633;-74
2022/12/30 12:45:02;;;;;;;1.80;0.82;;;;;;;5.96;100.00;95449.97;5000522;28;24826;-74
2022/12/30 12:47:50;;;;;;;1.85;0.90;;;;;;;5.95;100.00;95444.91;4984468;28;24437;-74